Time;durP1;ratioP1;P1;durP2;ratioP2;P2;SDS_P1;SDS_P2;PMS_P1;PMS_P2;Temp;Humidity;BMP_temperature;BMP_pressure;BME280_temperature;BME280_humidity;BME280_pressure;Samples;Min_cycle;Max_cycle;Signal;HPM_P1;HPM_P2
2021/06/12 00:00:10;;;;;;;9.35;5.07;;;17.90;99.90;;;;;;5035774;28;20115;-77
2021/06/12 00:02:37;;;;;;;5.60;5.10;;;17.80;99.90;;;;;;5034575;28;20029;-77
2021/06/12 00:05:07;;;;;;;8.68;4.90;;;17.80;99.90;;;;;;5034498;28;20067;-77
2021/06/12 00:07:33;;;;;;;6.43;5.40;;;17.80;99.90;;;;;;5036055;28;20018;-77
2021/06/12 00:09:58;;;;;;;10.80;5.47;;;17.80;99.90;;;;;;5034385;28;20030;-77
2021/06/12 00:12:24;;;;;;;7.53;5.35;;;17.80;99.90;;;;;;5034368;28;20021;-77
2021/06/12 00:14:50;;;;;;;8.15;4.93;;;17.70;99.90;;;;;;5034388;28;20084;-77
2021/06/12 00:17:18;;;;;;;7.68;4.72;;;17.60;99.90;;;;;;5034272;28;20028;-77
2021/06/12 00:19:44;;;;;;;5.85;5.13;;;17.70;99.90;;;;;;5035407;28;20030;-77
2021/06/12 00:22:09;;;;;;;8.30;5.63;;;17.80;99.90;;;;;;5035528;28;20354;-77
2021/06/12 00:24:35;;;;;;;7.25;5.20;;;17.70;99.90;;;;;;5035960;28;20022;-77
2021/06/12 00:27:01;;;;;;;6.10;5.07;;;17.70;99.90;;;;;;5034231;28;20021;-77
2021/06/12 00:29:26;;;;;;;6.55;4.78;;;17.70;99.90;;;;;;5034127;28;20076;-76
2021/06/12 00:31:52;;;;;;;8.27;5.30;;;17.70;99.90;;;;;;5034029;28;20029;-77
2021/06/12 00:34:18;;;;;;;8.77;5.32;;;17.70;99.90;;;;;;5035205;28;20036;-77
2021/06/12 00:36:43;;;;;;;5.55;4.90;;;17.60;99.90;;;;;;5033755;28;20057;-76
2021/06/12 00:39:09;;;;;;;9.18;5.50;;;17.50;99.90;;;;;;5035391;28;20414;-77
2021/06/12 00:41:35;;;;;;;5.70;5.10;;;17.60;99.90;;;;;;5033903;28;20060;-77
2021/06/12 00:44:01;;;;;;;7.20;5.03;;;17.60;99.90;;;;;;5033972;28;20026;-77
2021/06/12 00:46:26;;;;;;;5.50;5.00;;;17.50;99.90;;;;;;5035127;28;20017;-77
2021/06/12 00:48:53;;;;;;;6.75;5.03;;;17.50;99.90;;;;;;5033868;28;20038;-77
2021/06/12 00:51:21;;;;;;;11.32;5.25;;;17.60;99.90;;;;;;5034116;28;20037;-77
2021/06/12 00:53:47;;;;;;;7.80;5.35;;;17.60;99.90;;;;;;5035049;28;20032;-77
2021/06/12 00:56:18;;;;;;;8.98;5.00;;;17.50;99.90;;;;;;5033937;28;20025;-77
2021/06/12 00:58:45;;;;;;;8.32;5.43;;;17.60;99.90;;;;;;5033607;28;20026;-77
2021/06/12 01:01:13;;;;;;;7.25;5.25;;;17.70;99.90;;;;;;5033511;28;20484;-77
2021/06/12 01:03:40;;;;;;;8.80;5.55;;;17.60;99.90;;;;;;5033515;28;20033;-77
2021/06/12 01:06:09;;;;;;;8.25;5.18;;;17.50;99.90;;;;;;5034663;28;20147;-77
2021/06/12 01:08:36;;;;;;;9.38;5.53;;;17.30;99.90;;;;;;5034633;28;20076;-77
2021/06/12 01:11:02;;;;;;;6.40;4.63;;;17.10;99.90;;;;;;5034553;28;20389;-77
2021/06/12 01:13:38;;;;;;;9.15;5.47;;;17.30;99.90;;;;;;5034596;28;20092;-77
2021/06/12 01:16:29;;;;;;;13.50;5.70;;;17.30;99.90;;;;;;5033348;28;20028;-77
2021/06/12 01:18:57;;;;;;;7.90;4.95;;;17.20;99.90;;;;;;5033105;28;20033;-77
2021/06/12 01:21:33;;;;;;;5.25;4.75;;;17.20;99.90;;;;;;5033159;28;20029;-77
2021/06/12 01:24:49;;;;;;;5.63;5.13;;;17.10;99.90;;;;;;5034420;28;20055;-77
2021/06/12 01:27:23;;;;;;;10.77;5.30;;;17.20;99.90;;;;;;4976536;28;20039;-77
2021/06/12 01:30:05;;;;;;;10.38;5.75;;;17.20;99.90;;;;;;4992706;28;20027;-77
2021/06/12 01:32:34;;;;;;;10.80;5.25;;;17.10;99.90;;;;;;5011326;28;20033;-77
2021/06/12 01:35:06;;;;;;;7.28;5.25;;;17.10;99.90;;;;;;5034084;28;20508;-77
2021/06/12 01:37:36;;;;;;;7.88;5.60;;;17.10;99.90;;;;;;5034684;28;20036;-77
2021/06/12 01:40:05;;;;;;;7.00;5.15;;;17.30;99.90;;;;;;5033971;28;20439;-77
2021/06/12 01:42:32;;;;;;;9.10;5.32;;;17.30;99.90;;;;;;5033916;28;20472;-77
2021/06/12 01:44:59;;;;;;;6.18;5.13;;;17.20;99.90;;;;;;5032731;28;20385;-77
2021/06/12 01:47:25;;;;;;;8.02;5.38;;;17.20;99.90;;;;;;5032733;28;20374;-78
2021/06/12 01:49:52;;;;;;;5.88;4.97;;;17.20;99.90;;;;;;5032673;28;20428;-77
2021/06/12 01:52:19;;;;;;;7.70;5.53;;;17.20;99.90;;;;;;5032584;28;20110;-77
2021/06/12 01:54:48;;;;;;;9.50;6.18;;;17.20;99.90;;;;;;5033835;28;20041;-77
2021/06/12 01:57:14;;;;;;;7.57;5.13;;;17.10;99.90;;;;;;5032586;28;20022;-77
2021/06/12 01:59:40;;;;;;;5.72;5.20;;;17.10;99.90;;;;;;5033536;28;20053;-77
2021/06/12 02:02:07;;;;;;;5.90;5.30;;;17.10;99.90;;;;;;5032130;28;20486;-77
2021/06/12 02:04:38;;;;;;;12.02;5.25;;;17.20;99.90;;;;;;5033694;28;20384;-77
2021/06/12 02:07:06;;;;;;;9.60;5.10;;;17.10;99.90;;;;;;5032387;28;20032;-77
2021/06/12 02:09:34;;;;;;;8.15;5.50;;;17.10;99.90;;;;;;5033866;28;20064;-77
2021/06/12 02:12:00;;;;;;;8.88;5.30;;;17.10;99.90;;;;;;5032307;28;20370;-77
2021/06/12 02:14:27;;;;;;;8.80;5.65;;;17.10;99.90;;;;;;5033568;28;20533;-77
2021/06/12 02:16:53;;;;;;;5.82;5.13;;;17.00;99.90;;;;;;5032249;28;20127;-77
2021/06/12 02:19:20;;;;;;;7.55;5.03;;;17.10;99.90;;;;;;5032129;28;20022;-77
2021/06/12 02:21:47;;;;;;;10.18;5.38;;;16.90;99.90;;;;;;5033423;28;20053;-77
2021/06/12 02:24:13;;;;;;;6.13;5.25;;;16.80;99.90;;;;;;5032112;28;20022;-77
2021/06/12 02:26:42;;;;;;;10.18;5.90;;;16.80;99.90;;;;;;5033494;28;20025;-78
2021/06/12 02:29:09;;;;;;;6.78;4.63;;;16.80;99.90;;;;;;5032123;28;20092;-77
2021/06/12 02:31:45;;;;;;;7.53;5.35;;;17.00;99.90;;;;;;5033330;28;20048;-77
2021/06/12 02:34:11;;;;;;;5.60;4.85;;;16.90;99.90;;;;;;5033841;28;20384;-77
2021/06/12 02:36:37;;;;;;;6.43;5.20;;;16.90;99.90;;;;;;5031875;28;20041;-77
2021/06/12 02:39:05;;;;;;;8.30;4.97;;;16.90;99.90;;;;;;5031939;28;20037;-78
2021/06/12 02:41:32;;;;;;;5.85;5.20;;;16.80;99.90;;;;;;5033208;28;20152;-77
2021/06/12 02:43:58;;;;;;;7.45;5.10;;;16.80;99.90;;;;;;5031927;28;20048;-77
2021/06/12 02:46:28;;;;;;;5.60;5.10;;;16.70;99.90;;;;;;5033294;28;20025;-77
2021/06/12 02:48:59;;;;;;;5.63;4.78;;;16.70;99.90;;;;;;5033156;28;20022;-77
2021/06/12 02:51:27;;;;;;;6.32;4.72;;;16.70;99.90;;;;;;5031957;28;20076;-77
2021/06/12 02:53:54;;;;;;;6.13;4.70;;;16.70;99.90;;;;;;5033186;28;20026;-77
2021/06/12 02:56:20;;;;;;;7.45;5.30;;;16.50;99.90;;;;;;5031866;28;20033;-77
2021/06/12 02:58:47;;;;;;;9.85;5.60;;;16.70;99.90;;;;;;5033077;28;20056;-77
2021/06/12 03:01:15;;;;;;;8.15;5.28;;;16.70;99.90;;;;;;5031764;28;20049;-78
2021/06/12 03:03:42;;;;;;;7.00;5.10;;;16.50;99.90;;;;;;5033053;28;20473;-77
2021/06/12 03:06:08;;;;;;;8.00;5.47;;;16.60;99.90;;;;;;5031782;28;20388;-77
2021/06/12 03:08:43;;;;;;;5.20;4.70;;;16.70;99.90;;;;;;5031608;28;20060;-78
2021/06/12 03:11:11;;;;;;;10.32;5.30;;;16.70;99.90;;;;;;5031950;28;20480;-77
2021/06/12 03:13:41;;;;;;;10.55;5.03;;;16.80;99.90;;;;;;5033372;28;20033;-77
2021/06/12 03:16:08;;;;;;;9.60;5.20;;;16.70;99.90;;;;;;5035660;28;20535;-77
2021/06/12 03:18:35;;;;;;;8.00;4.95;;;16.60;99.90;;;;;;5036710;28;20049;-77
2021/06/12 03:21:03;;;;;;;8.90;4.85;;;16.70;99.90;;;;;;5036634;28;20100;-77
2021/06/12 03:23:31;;;;;;;12.48;5.47;;;16.60;99.90;;;;;;5035431;28;20064;-77
2021/06/12 03:25:58;;;;;;;8.88;5.15;;;16.60;99.90;;;;;;5036686;28;20025;-77
2021/06/12 03:28:25;;;;;;;5.85;4.88;;;16.40;99.90;;;;;;5036532;28;20092;-77
2021/06/12 03:30:51;;;;;;;5.97;5.18;;;16.30;99.90;;;;;;5036670;28;20469;-77
2021/06/12 03:33:18;;;;;;;9.45;4.78;;;16.30;99.90;;;;;;5035128;28;20029;-77
2021/06/12 03:35:45;;;;;;;8.63;4.80;;;16.20;99.90;;;;;;5036075;28;20084;-77
2021/06/12 03:38:12;;;;;;;5.85;5.13;;;16.20;99.90;;;;;;5036257;28;20048;-77
2021/06/12 03:40:38;;;;;;;11.25;5.55;;;16.30;99.90;;;;;;5034859;28;20088;-77
2021/06/12 03:43:06;;;;;;;8.30;5.32;;;16.40;99.90;;;;;;5036732;28;20049;-77
2021/06/12 03:45:34;;;;;;;10.25;5.05;;;16.40;99.90;;;;;;5018637;28;20067;-77
2021/06/12 03:48:02;;;;;;;7.63;5.00;;;16.40;99.90;;;;;;5034812;28;20022;-77
2021/06/12 03:50:29;;;;;;;8.05;5.32;;;16.50;99.90;;;;;;5034754;28;20112;-77
2021/06/12 03:52:55;;;;;;;7.00;5.03;;;16.50;99.90;;;;;;5034750;28;20026;-77
2021/06/12 03:55:21;;;;;;;6.88;5.00;;;16.50;99.90;;;;;;5035948;28;20034;-77
2021/06/12 03:57:48;;;;;;;5.97;5.20;;;16.60;99.90;;;;;;5035932;28;20079;-77
2021/06/12 04:00:16;;;;;;;6.80;5.35;;;16.60;99.90;;;;;;5035816;28;20030;-77
2021/06/12 04:02:41;;;;;;;8.90;5.15;;;16.60;99.90;;;;;;5034585;28;20076;-77
2021/06/12 04:05:08;;;;;;;8.82;4.97;;;16.60;99.90;;;;;;5034520;28;20497;-77
2021/06/12 04:07:35;;;;;;;7.57;5.18;;;16.50;99.90;;;;;;5034397;28;20033;-77
2021/06/12 04:10:01;;;;;;;7.28;4.90;;;16.50;99.90;;;;;;5035675;28;20056;-77
2021/06/12 04:12:27;;;;;;;6.07;4.90;;;16.40;99.90;;;;;;5035669;28;20103;-77
2021/06/12 04:14:52;;;;;;;7.97;5.13;;;16.20;99.90;;;;;;5035850;28;20033;-77
2021/06/12 04:17:19;;;;;;;5.22;4.70;;;16.10;99.90;;;;;;5035546;28;20571;-77
2021/06/12 04:19:44;;;;;;;7.25;5.28;;;16.10;99.90;;;;;;5035448;28;20577;-77
2021/06/12 04:22:10;;;;;;;7.75;5.10;;;16.30;99.90;;;;;;5035492;28;20121;-77
2021/06/12 04:24:36;;;;;;;10.18;5.18;;;16.40;99.90;;;;;;5035390;28;20022;-78
2021/06/12 04:27:02;;;;;;;6.00;5.47;;;16.30;99.90;;;;;;5034164;28;20033;-78
2021/06/12 04:29:27;;;;;;;9.85;5.22;;;16.20;99.90;;;;;;5034065;28;20021;-77
2021/06/12 04:31:53;;;;;;;10.23;5.00;;;16.30;99.90;;;;;;5034014;28;20026;-77
2021/06/12 04:34:19;;;;;;;9.57;5.63;;;16.40;99.90;;;;;;5033934;28;20025;-77
2021/06/12 04:36:45;;;;;;;8.45;4.78;;;16.40;99.90;;;;;;5035051;28;20037;-77
2021/06/12 04:39:11;;;;;;;8.55;4.97;;;16.40;99.90;;;;;;5035091;28;20041;-77
2021/06/12 04:41:37;;;;;;;7.00;4.80;;;16.40;99.90;;;;;;5035419;28;20384;-77
2021/06/12 04:44:04;;;;;;;8.30;5.07;;;16.40;99.90;;;;;;5033794;28;20116;-78
2021/06/12 04:46:30;;;;;;;9.35;5.22;;;16.40;99.90;;;;;;5035018;28;20052;-78
2021/06/12 04:48:55;;;;;;;8.88;5.18;;;16.50;99.90;;;;;;5035244;28;20033;-78
2021/06/12 04:51:21;;;;;;;8.52;4.90;;;16.70;99.90;;;;;;5033649;28;20071;-77
2021/06/12 04:53:47;;;;;;;6.60;5.05;;;16.70;99.90;;;;;;5034863;28;20025;-77
2021/06/12 04:56:13;;;;;;;9.32;4.72;;;16.70;99.90;;;;;;5033800;28;20041;-77
2021/06/12 04:58:39;;;;;;;10.23;5.00;;;16.80;99.90;;;;;;5033441;28;20087;-78
2021/06/12 05:01:04;;;;;;;9.43;5.13;;;16.80;99.90;;;;;;5033448;28;20022;-77
2021/06/12 05:03:30;;;;;;;5.85;5.10;;;16.60;99.90;;;;;;5033435;28;20388;-77
2021/06/12 05:05:56;;;;;;;5.63;4.95;;;16.60;99.90;;;;;;5033353;28;20032;-77
2021/06/12 05:08:22;;;;;;;9.73;5.22;;;16.60;99.90;;;;;;5033301;28;20108;-77
2021/06/12 05:10:48;;;;;;;7.97;5.38;;;16.60;99.90;;;;;;5034511;28;20064;-77
2021/06/12 05:13:14;;;;;;;5.95;4.85;;;16.90;99.90;;;;;;5034526;28;20095;-77
2021/06/12 05:15:40;;;;;;;7.10;4.82;;;17.00;99.90;;;;;;5034372;28;20030;-77
2021/06/12 05:18:06;;;;;;;7.78;4.97;;;17.00;99.90;;;;;;5034414;28;20354;-77
2021/06/12 05:20:35;;;;;;;7.95;4.47;;;17.00;99.90;;;;;;5034265;28;20381;-77
2021/06/12 05:23:04;;;;;;;12.63;4.95;;;17.10;99.90;;;;;;5034365;28;20022;-78
2021/06/12 05:25:31;;;;;;;6.15;4.57;;;17.00;99.90;;;;;;5034282;28;20025;-77
2021/06/12 05:27:57;;;;;;;5.47;4.65;;;17.10;99.90;;;;;;5034248;28;20056;-78
2021/06/12 05:30:23;;;;;;;5.47;4.95;;;17.20;99.90;;;;;;5034165;28;20472;-77
2021/06/12 05:32:49;;;;;;;8.63;4.90;;;17.30;99.90;;;;;;5032857;28;20041;-77
2021/06/12 05:35:15;;;;;;;7.97;5.22;;;17.40;99.90;;;;;;5033861;28;20045;-77
2021/06/12 05:37:41;;;;;;;6.13;5.20;;;17.40;99.90;;;;;;5033710;28;20033;-77
2021/06/12 05:40:09;;;;;;;9.73;5.10;;;17.50;99.90;;;;;;5034204;28;20503;-77
2021/06/12 05:42:35;;;;;;;6.43;5.18;;;17.50;99.90;;;;;;5033900;28;20444;-77
2021/06/12 05:45:01;;;;;;;7.80;5.25;;;17.50;99.90;;;;;;5032627;28;20032;-77
2021/06/12 05:47:27;;;;;;;6.10;5.50;;;17.50;99.90;;;;;;5033805;28;20029;-77
2021/06/12 05:49:52;;;;;;;8.95;5.28;;;17.60;99.90;;;;;;5032555;28;20444;-77
2021/06/12 05:52:18;;;;;;;8.80;4.82;;;17.60;99.90;;;;;;5033734;28;20033;-77
2021/06/12 05:54:44;;;;;;;9.85;5.10;;;17.80;99.90;;;;;;5033736;28;20025;-77
2021/06/12 05:57:09;;;;;;;6.93;4.80;;;18.00;99.90;;;;;;5032430;28;20049;-77
2021/06/12 05:59:35;;;;;;;7.78;5.00;;;18.10;99.90;;;;;;5032326;28;20447;-77
2021/06/12 06:02:01;;;;;;;6.50;5.05;;;18.10;99.90;;;;;;5033646;28;20060;-77
2021/06/12 06:04:27;;;;;;;5.65;4.80;;;18.20;99.90;;;;;;5032308;28;20392;-77
2021/06/12 06:06:52;;;;;;;10.70;5.38;;;18.20;99.90;;;;;;5032224;28;20029;-77
2021/06/12 06:09:18;;;;;;;7.68;5.07;;;18.30;99.90;;;;;;5032718;28;20025;-77
2021/06/12 06:11:44;;;;;;;8.30;5.00;;;18.40;99.90;;;;;;5033736;28;20029;-77
2021/06/12 06:14:09;;;;;;;7.80;5.03;;;18.50;99.90;;;;;;5032170;28;20060;-77
2021/06/12 06:16:35;;;;;;;7.35;5.00;;;18.70;99.90;;;;;;5032367;28;20116;-77
2021/06/12 06:19:01;;;;;;;9.80;5.43;;;18.70;99.90;;;;;;5032086;28;20481;-77
2021/06/12 06:21:26;;;;;;;7.20;5.35;;;18.80;99.90;;;;;;5033411;28;20033;-77
2021/06/12 06:23:52;;;;;;;5.50;4.88;;;18.90;99.90;;;;;;5033599;28;20025;-77
2021/06/12 06:26:18;;;;;;;7.93;4.97;;;18.90;99.90;;;;;;5031987;28;20028;-77
2021/06/12 06:28:44;;;;;;;8.90;5.65;;;18.90;99.90;;;;;;5033303;28;20056;-77
2021/06/12 06:31:10;;;;;;;9.52;5.35;;;19.00;99.90;;;;;;5033520;28;20049;-77
2021/06/12 06:33:36;;;;;;;6.25;5.38;;;19.00;99.90;;;;;;5031876;28;20028;-77
2021/06/12 06:36:02;;;;;;;8.55;5.45;;;19.10;99.90;;;;;;5033023;28;20034;-77
2021/06/12 06:38:28;;;;;;;8.70;4.97;;;19.20;99.90;;;;;;5033196;28;20017;-77
2021/06/12 06:40:54;;;;;;;10.85;5.55;;;19.30;99.90;;;;;;5031835;28;20043;-77
2021/06/12 06:43:20;;;;;;;9.55;5.00;;;19.50;99.90;;;;;;5033389;28;20338;-77
2021/06/12 06:45:46;;;;;;;6.63;4.72;;;19.60;99.90;;;;;;5031802;28;20432;-77
2021/06/12 06:48:13;;;;;;;8.18;4.88;;;19.80;99.90;;;;;;5032885;28;20503;-78
2021/06/12 06:50:40;;;;;;;6.38;5.15;;;19.90;99.90;;;;;;5037728;28;20067;-77
2021/06/12 06:53:06;;;;;;;8.30;4.95;;;19.90;99.90;;;;;;5035800;28;20477;-77
2021/06/12 06:55:32;;;;;;;14.30;5.32;;;20.00;99.90;;;;;;5037023;28;20017;-77
2021/06/12 06:57:58;;;;;;;10.02;4.97;;;20.10;99.90;;;;;;5035782;28;20025;-77
2021/06/12 07:00:26;;;;;;;12.68;4.97;;;20.20;99.90;;;;;;5036876;28;20037;-77
2021/06/12 07:02:53;;;;;;;9.43;4.93;;;20.40;99.90;;;;;;5035615;28;20022;-77
2021/06/12 07:05:19;;;;;;;8.45;4.28;;;20.50;99.90;;;;;;5035660;28;20108;-77
2021/06/12 07:07:44;;;;;;;8.85;3.90;;;20.70;99.90;;;;;;5035593;28;20026;-77
2021/06/12 07:10:11;;;;;;;3.80;3.30;;;20.90;99.90;;;;;;5037078;28;20060;-77
2021/06/12 07:12:37;;;;;;;4.72;3.28;;;21.10;99.90;;;;;;5036780;28;20445;-77
2021/06/12 07:15:04;;;;;;;8.57;3.55;;;21.20;99.90;;;;;;5036732;28;20104;-77
2021/06/12 07:17:30;;;;;;;4.32;3.30;;;21.50;99.90;;;;;;5036586;28;20108;-77
2021/06/12 07:19:55;;;;;;;10.13;3.50;;;21.70;99.90;;;;;;5035412;28;20448;-77
2021/06/12 07:22:21;;;;;;;9.60;3.13;;;21.90;99.90;;;;;;5035358;28;20108;-78
2021/06/12 07:24:48;;;;;;;5.65;2.85;;;22.00;99.90;;;;;;5036868;28;20448;-78
2021/06/12 07:27:14;;;;;;;7.00;2.97;;;22.20;99.90;;;;;;5035236;28;20056;-77
2021/06/12 07:29:39;;;;;;;5.40;3.03;;;22.40;99.90;;;;;;5036407;28;20416;-77
2021/06/12 07:32:06;;;;;;;8.25;2.88;;;22.50;99.90;;;;;;5035145;28;20095;-77
2021/06/12 07:34:32;;;;;;;6.28;2.70;;;22.60;99.90;;;;;;5034819;28;20026;-76
2021/06/12 07:36:57;;;;;;;7.15;2.60;;;22.80;99.90;;;;;;5036361;28;20083;-77
2021/06/12 07:39:27;;;;;;;4.25;2.50;;;23.00;99.90;;;;;;5036224;28;20029;-77
2021/06/12 07:41:53;;;;;;;3.47;2.33;;;23.10;99.90;;;;;;5034998;28;20021;-77
2021/06/12 07:44:19;;;;;;;6.32;2.83;;;23.30;99.90;;;;;;5036169;28;20025;-77
2021/06/12 07:46:44;;;;;;;3.60;2.15;;;23.40;99.90;;;;;;5036097;28;20028;-77
2021/06/12 07:49:11;;;;;;;6.82;2.53;;;23.60;99.90;;;;;;5034847;28;20107;-77
2021/06/12 07:51:38;;;;;;;2.78;2.03;;;23.90;99.90;;;;;;5036027;28;20493;-77
2021/06/12 07:54:04;;;;;;;4.47;2.13;;;23.90;99.90;;;;;;5034692;28;20025;-77
2021/06/12 07:56:30;;;;;;;4.72;2.22;;;23.80;99.90;;;;;;5035000;28;20032;-77
2021/06/12 07:58:57;;;;;;;3.95;1.90;;;23.80;99.90;;;;;;5035860;28;20029;-77
2021/06/12 08:01:23;;;;;;;4.60;1.98;;;23.90;99.90;;;;;;5035271;28;20025;-77
2021/06/12 08:03:48;;;;;;;3.13;1.73;;;24.10;99.90;;;;;;5036132;28;20029;-77
2021/06/12 08:06:14;;;;;;;4.10;1.70;;;24.40;99.90;;;;;;5035781;28;20021;-78
2021/06/12 08:08:40;;;;;;;3.25;1.90;;;24.60;99.90;;;;;;5036279;28;20056;-77
2021/06/12 08:11:06;;;;;;;4.95;1.98;;;24.80;99.90;;;;;;5034961;28;20076;-77
2021/06/12 08:13:32;;;;;;;7.57;2.20;;;25.00;99.90;;;;;;5034431;28;20026;-77
2021/06/12 08:15:57;;;;;;;4.28;2.08;;;25.00;99.90;;;;;;5035621;28;20105;-77
2021/06/12 08:18:23;;;;;;;3.03;1.75;;;25.00;99.90;;;;;;5034234;28;20022;-72
2021/06/12 08:20:49;;;;;;;2.30;1.95;;;24.90;99.90;;;;;;5035374;28;20116;-78
2021/06/12 08:23:16;;;;;;;5.68;1.83;;;25.10;99.90;;;;;;5034242;28;20362;-78
2021/06/12 08:25:42;;;;;;;11.07;2.30;;;25.10;99.90;;;;;;5034151;28;20037;-78
2021/06/12 08:28:07;;;;;;;5.25;1.90;;;25.10;99.90;;;;;;5035698;28;20017;-78
2021/06/12 08:30:35;;;;;;;3.45;1.77;;;25.10;99.90;;;;;;5034053;28;20022;-78
2021/06/12 08:33:04;;;;;;;2.95;1.77;;;24.90;99.90;;;;;;5034039;28;20369;-78
2021/06/12 08:35:30;;;;;;;5.03;1.88;;;24.80;99.90;;;;;;5033871;28;20504;-77
2021/06/12 08:37:56;;;;;;;7.18;2.13;;;24.70;99.90;;;;;;5035218;28;20075;-78
2021/06/12 08:40:23;;;;;;;5.43;1.88;;;24.80;99.90;;;;;;5034123;28;20588;-78
2021/06/12 08:42:50;;;;;;;4.22;1.48;;;24.70;99.90;;;;;;5035116;28;20075;-78
2021/06/12 08:45:28;;;;;;;3.22;1.65;;;24.80;99.90;;;;;;5035124;28;20025;-78
2021/06/12 08:47:56;;;;;;;4.38;1.60;;;25.00;99.90;;;;;;5035340;28;20020;-78
2021/06/12 08:50:24;;;;;;;6.53;1.63;;;25.20;99.90;;;;;;5033671;28;20045;-78
2021/06/12 08:52:51;;;;;;;3.30;1.85;;;25.20;99.90;;;;;;5034970;28;20033;-78
2021/06/12 08:55:19;;;;;;;3.92;2.00;;;25.40;99.90;;;;;;5034898;28;20109;-78
2021/06/12 08:57:45;;;;;;;1.80;1.30;;;25.60;99.90;;;;;;5033573;28;20036;-78
2021/06/12 09:00:12;;;;;;;5.40;1.50;;;25.60;99.90;;;;;;5035224;28;20033;-78
2021/06/12 09:03:24;;;;;;;2.83;1.35;;;25.50;99.90;;;;;;5033437;28;20026;-78
2021/06/12 09:06:01;;;;;;;7.43;1.67;;;25.50;99.90;;;;;;5030505;28;20551;-78
2021/06/12 09:08:28;;;;;;;3.08;1.60;;;25.40;99.90;;;;;;5034651;28;20031;-77
2021/06/12 09:11:04;;;;;;;2.63;1.48;;;25.50;99.90;;;;;;5033008;28;20116;-78
2021/06/12 09:13:57;;;;;;;4.55;1.63;;;25.50;99.90;;;;;;5033954;28;20543;-78
2021/06/12 09:16:36;;;;;;;4.22;1.75;;;25.80;99.90;;;;;;5034774;28;20028;-77
2021/06/12 09:19:07;;;;;;;3.33;1.30;;;26.20;99.90;;;;;;5033101;28;20124;-77
2021/06/12 09:21:35;;;;;;;2.60;1.30;;;26.50;99.90;;;;;;5034523;28;20026;-78
2021/06/12 09:24:03;;;;;;;4.15;1.50;;;26.60;99.90;;;;;;5034296;28;20553;-77
2021/06/12 09:26:57;;;;;;;5.80;1.45;;;26.70;99.90;;;;;;5032994;28;20021;-77
2021/06/12 09:29:33;;;;;;;2.15;1.33;;;26.50;99.90;;;;;;5032853;28;20455;-77
2021/06/12 09:31:59;;;;;;;2.47;1.40;;;26.40;99.90;;;;;;5034134;28;20029;-78
2021/06/12 09:34:26;;;;;;;4.32;1.50;;;26.40;99.90;;;;;;5032790;28;20052;-78
2021/06/12 09:36:53;;;;;;;6.07;1.60;;;26.50;99.90;;;;;;5032805;28;20068;-78
2021/06/12 09:39:25;;;;;;;3.63;1.42;;;26.70;99.90;;;;;;5032687;28;20044;-78
2021/06/12 09:41:55;;;;;;;3.47;1.73;;;26.60;99.90;;;;;;5033987;28;20022;-78
2021/06/12 09:44:35;;;;;;;3.25;1.60;;;26.50;99.90;;;;;;5032720;28;20029;-78
2021/06/12 09:47:22;;;;;;;3.22;1.50;;;26.70;99.90;;;;;;5032626;28;20025;-78
2021/06/12 09:49:49;;;;;;;4.50;1.65;;;26.50;99.90;;;;;;5032576;28;20034;-78
2021/06/12 09:52:17;;;;;;;4.40;1.52;;;26.90;99.90;;;;;;5032547;28;20389;-78
2021/06/12 09:54:45;;;;;;;6.68;1.80;;;27.20;99.90;;;;;;5033814;28;20022;-78
2021/06/12 09:57:14;;;;;;;3.00;1.65;;;27.40;99.90;;;;;;5033715;28;20061;-78
2021/06/12 09:59:54;;;;;;;2.47;1.40;;;27.30;99.90;;;;;;5032336;28;20037;-78
2021/06/12 10:02:44;;;;;;;2.65;1.20;;;27.10;99.90;;;;;;5032416;28;20073;-78
2021/06/12 10:05:15;;;;;;;5.78;1.40;;;27.30;99.90;;;;;;5032430;28;20445;-78
2021/06/12 10:07:42;;;;;;;3.90;1.35;;;27.40;99.90;;;;;;5033912;28;20530;-77
2021/06/12 10:10:11;;;;;;;5.00;1.48;;;27.60;99.90;;;;;;5033560;28;20532;-78
2021/06/12 10:12:38;;;;;;;3.78;1.70;;;27.80;99.90;;;;;;5032270;28;20028;-78
2021/06/12 10:15:06;;;;;;;2.45;1.60;;;27.60;99.90;;;;;;5033509;28;20021;-78
2021/06/12 10:17:50;;;;;;;2.70;1.50;;;27.10;99.90;;;;;;5033444;28;20022;-78
2021/06/12 10:20:22;;;;;;;1.98;1.50;;;27.20;99.90;;;;;;5032183;28;20026;-78
2021/06/12 10:22:50;;;;;;;3.83;1.55;;;27.60;99.90;;;;;;5033468;28;20032;-78
2021/06/12 10:25:18;;;;;;;2.08;1.52;;;27.60;99.80;;;;;;5032092;28;20480;-78
2021/06/12 10:27:44;;;;;;;2.58;1.50;;;27.50;99.90;;;;;;5032072;28;20071;-78
2021/06/12 10:30:12;;;;;;;1.60;1.50;;;27.40;99.20;;;;;;5032030;28;20033;-78
2021/06/12 10:32:47;;;;;;;5.15;2.05;;;27.10;99.70;;;;;;5031986;28;20029;-77
2021/06/12 10:35:22;;;;;;;2.38;1.50;;;26.90;99.90;;;;;;5032911;28;20049;-78
2021/06/12 10:38:04;;;;;;;7.93;1.67;;;26.60;99.90;;;;;;5031877;28;20128;-78
2021/06/12 10:40:45;;;;;;;5.68;2.53;;;26.90;99.90;;;;;;5033134;28;20485;-78
2021/06/12 10:43:25;;;;;;;4.20;2.45;;;27.50;99.90;;;;;;5031872;28;20026;-78
2021/06/12 10:46:23;;;;;;;3.58;1.52;;;28.00;97.90;;;;;;5031930;28;20024;-78
2021/06/12 10:49:00;;;;;;;5.72;1.70;;;28.10;97.20;;;;;;5025268;28;20033;-78
2021/06/12 10:51:25;;;;;;;6.20;1.55;;;28.70;96.60;;;;;;5033184;28;20025;-78
2021/06/12 10:54:10;;;;;;;1.40;1.20;;;28.80;96.00;;;;;;5031799;28;20026;-77
2021/06/12 10:56:39;;;;;;;;;;;28.80;95.80;;;;;;5033461;28;20467;-77
2021/06/12 10:59:06;;;;;;;2.97;0.90;;;29.00;94.50;;;;;;5031997;28;19913;-78
2021/06/12 11:01:32;;;;;;;3.13;1.10;;;29.10;93.10;;;;;;5031639;28;20021;-77
2021/06/12 11:04:22;;;;;;;2.65;1.23;;;29.00;93.40;;;;;;5031652;28;20072;-78
2021/06/12 11:06:52;;;;;;;1.92;1.10;;;29.20;93.50;;;;;;5032686;28;20032;-78
2021/06/12 11:09:28;;;;;;;2.25;1.20;;;29.70;93.30;;;;;;5031698;28;20029;-78
2021/06/12 11:11:57;;;;;;;6.30;1.27;;;29.80;92.90;;;;;;5032909;28;20029;-78
2021/06/12 11:14:26;;;;;;;2.67;0.95;;;29.00;92.90;;;;;;5031602;28;20032;-78
2021/06/12 11:19:33;;;;;;;3.33;1.10;;;29.50;90.10;;;;;;5033071;28;20079;-78
2021/06/12 11:22:34;;;;;;;1.50;1.00;;;29.70;91.10;;;;;;5031569;28;20073;-78
2021/06/12 11:25:10;;;;;;;1.60;0.95;;;29.50;90.70;;;;;;5031507;28;20026;-78
2021/06/12 11:27:38;;;;;;;1.52;1.25;;;30.00;90.20;;;;;;5031522;28;20056;-78
2021/06/12 11:32:57;;;;;;;4.88;1.15;;;29.90;89.00;;;;;;5033042;28;20025;-78
2021/06/12 11:35:43;;;;;;;4.47;1.00;;;30.00;89.30;;;;;;5032380;28;20091;-78
2021/06/12 11:38:11;;;;;;;3.65;1.10;;;30.00;86.30;;;;;;5036357;28;20096;-78
2021/06/12 11:40:38;;;;;;;2.38;1.02;;;29.90;85.20;;;;;;5036451;28;20026;-78
2021/06/12 11:43:05;;;;;;;3.65;0.90;;;29.90;83.20;;;;;;5034925;28;20075;-79
2021/06/12 11:45:34;;;;;;;1.42;0.95;;;30.00;81.60;;;;;;5036139;28;20056;-78
2021/06/12 11:48:20;;;;;;;3.20;1.08;;;29.80;81.80;;;;;;5036117;28;20112;-79
2021/06/12 11:50:48;;;;;;;2.00;0.93;;;30.10;81.50;;;;;;5036046;28;20026;-78
2021/06/12 11:53:16;;;;;;;2.83;0.60;;;30.80;79.30;;;;;;5034717;28;20021;-79
2021/06/12 11:55:42;;;;;;;3.72;0.77;;;30.80;78.80;;;;;;5036158;28;20033;-78
2021/06/12 11:58:08;;;;;;;5.70;0.90;;;30.90;78.80;;;;;;5035928;28;20369;-78
2021/06/12 12:00:36;;;;;;;3.00;1.00;;;30.60;78.90;;;;;;5035809;28;20026;-78
2021/06/12 12:03:06;;;;;;;1.42;0.98;;;30.70;81.00;;;;;;5035303;28;20116;-79
2021/06/12 12:05:52;;;;;;;5.22;1.00;;;30.30;79.70;;;;;;5035927;28;20094;-80
2021/06/12 12:08:22;;;;;;;1.05;0.70;;;30.70;79.60;;;;;;5036097;28;20017;-79
2021/06/12 12:10:53;;;;;;;5.30;1.10;;;31.00;79.90;;;;;;5036096;28;20029;-79
2021/06/12 12:13:35;;;;;;;2.03;1.10;;;31.00;81.10;;;;;;5035733;28;20052;-79
2021/06/12 12:16:02;;;;;;;2.85;0.90;;;30.90;78.80;;;;;;5035971;28;20026;-79
2021/06/12 12:18:28;;;;;;;3.97;0.93;;;30.40;77.10;;;;;;5035729;28;20021;-79
2021/06/12 12:20:57;;;;;;;2.17;0.88;;;30.30;78.50;;;;;;5035490;28;20480;-79
2021/06/12 12:23:30;;;;;;;3.70;0.75;;;30.10;80.20;;;;;;5035486;28;20443;-79
2021/06/12 12:26:08;;;;;;;6.03;0.90;;;29.80;79.50;;;;;;5035742;28;20384;-78
2021/06/12 12:29:15;;;;;;;4.40;0.98;;;29.60;79.70;;;;;;5035668;28;20041;-79
2021/06/12 12:31:44;;;;;;;2.30;0.80;;;30.20;79.70;;;;;;5035400;28;20025;-78
2021/06/12 12:34:11;;;;;;;1.35;0.70;;;30.10;76.80;;;;;;5035187;28;20022;-79
2021/06/12 12:36:45;;;;;;;1.65;1.17;;;29.50;77.60;;;;;;5033845;28;20093;-78
2021/06/12 12:39:12;;;;;;;4.35;0.65;;;29.10;80.10;;;;;;5033868;28;20503;-78
2021/06/12 12:41:39;;;;;;;1.33;0.60;;;29.10;79.50;;;;;;5033945;28;20025;-79
2021/06/12 12:44:07;;;;;;;1.63;0.70;;;29.60;75.40;;;;;;5035129;28;20024;-78
2021/06/12 12:46:35;;;;;;;2.25;0.70;;;29.60;76.20;;;;;;5033716;28;20026;-78
2021/06/12 12:49:02;;;;;;;2.65;0.80;;;29.70;76.80;;;;;;5035042;28;20080;-79
2021/06/12 12:51:27;;;;;;;7.10;0.90;;;30.30;78.00;;;;;;5033741;28;20108;-79
2021/06/12 12:53:53;;;;;;;2.13;0.73;;;30.40;77.90;;;;;;5034974;28;20053;-79
2021/06/12 12:56:19;;;;;;;2.53;0.70;;;30.60;76.40;;;;;;5033702;28;20021;-78
2021/06/12 12:58:51;;;;;;;1.50;0.70;;;30.90;75.80;;;;;;5035164;28;20026;-79